sensor_id;sensor_type;location;lat;lon;timestamp;temperature;humidity
25983;DHT22;13773;48.868;10.730;2023-06-14T00:01:25;14.60;87.70
25983;DHT22;13773;48.868;10.730;2023-06-14T00:03:51;14.80;87.90
25983;DHT22;13773;48.868;10.730;2023-06-14T00:06:17;14.70;88.50
25983;DHT22;13773;48.868;10.730;2023-06-14T00:08:43;14.80;88.70
25983;DHT22;13773;48.868;10.730;2023-06-14T00:11:09;14.70;89.10
25983;DHT22;13773;48.868;10.730;2023-06-14T00:13:34;14.70;88.70
25983;DHT22;13773;48.868;10.730;2023-06-14T00:16:00;14.60;89.10
25983;DHT22;13773;48.868;10.730;2023-06-14T00:18:29;14.70;89.70
25983;DHT22;13773;48.868;10.730;2023-06-14T00:20:56;14.60;89.60
25983;DHT22;13773;48.868;10.730;2023-06-14T00:23:21;14.50;89.90
25983;DHT22;13773;48.868;10.730;2023-06-14T00:25:52;14.50;90.20
25983;DHT22;13773;48.868;10.730;2023-06-14T00:28:17;14.50;90.30
25983;DHT22;13773;48.868;10.730;2023-06-14T00:30:43;14.30;90.70
25983;DHT22;13773;48.868;10.730;2023-06-14T00:33:12;14.30;90.30
25983;DHT22;13773;48.868;10.730;2023-06-14T00:35:37;14.30;90.60
25983;DHT22;13773;48.868;10.730;2023-06-14T00:38:03;14.30;90.80
25983;DHT22;13773;48.868;10.730;2023-06-14T00:40:29;14.30;90.50
25983;DHT22;13773;48.868;10.730;2023-06-14T00:42:55;14.30;90.70
25983;DHT22;13773;48.868;10.730;2023-06-14T00:45:20;14.30;90.70
25983;DHT22;13773;48.868;10.730;2023-06-14T00:47:47;14.20;91.20
25983;DHT22;13773;48.868;10.730;2023-06-14T00:50:13;14.20;91.00
25983;DHT22;13773;48.868;10.730;2023-06-14T00:52:39;14.10;91.30
25983;DHT22;13773;48.868;10.730;2023-06-14T00:55:06;14.00;91.80
25983;DHT22;13773;48.868;10.730;2023-06-14T00:57:32;14.00;91.50
25983;DHT22;13773;48.868;10.730;2023-06-14T00:59:57;14.00;91.60
25983;DHT22;13773;48.868;10.730;2023-06-14T01:02:23;13.90;91.90
25983;DHT22;13773;48.868;10.730;2023-06-14T01:04:52;13.80;92.00
25983;DHT22;13773;48.868;10.730;2023-06-14T01:13:25;13.90;92.30
25983;DHT22;13773;48.868;10.730;2023-06-14T01:15:53;13.90;92.60
25983;DHT22;13773;48.868;10.730;2023-06-14T01:18:19;13.40;95.50
25983;DHT22;13773;48.868;10.730;2023-06-14T01:20:47;13.00;96.20
25983;DHT22;13773;48.868;10.730;2023-06-14T01:23:20;12.70;97.10
25983;DHT22;13773;48.868;10.730;2023-06-14T01:25:46;12.40;97.90
25983;DHT22;13773;48.868;10.730;2023-06-14T01:28:13;12.20;98.10
25983;DHT22;13773;48.868;10.730;2023-06-14T01:30:44;12.10;98.90
25983;DHT22;13773;48.868;10.730;2023-06-14T01:33:15;11.90;99.50
25983;DHT22;13773;48.868;10.730;2023-06-14T01:35:45;11.80;99.70
25983;DHT22;13773;48.868;10.730;2023-06-14T01:38:13;11.70;99.90
25983;DHT22;13773;48.868;10.730;2023-06-14T01:40:39;11.60;99.90
25983;DHT22;13773;48.868;10.730;2023-06-14T01:43:06;11.50;99.90
25983;DHT22;13773;48.868;10.730;2023-06-14T01:45:33;11.30;99.90
25983;DHT22;13773;48.868;10.730;2023-06-14T01:48:00;11.30;99.90
25983;DHT22;13773;48.868;10.730;2023-06-14T01:50:32;11.20;99.90
25983;DHT22;13773;48.868;10.730;2023-06-14T01:52:58;11.20;99.90
25983;DHT22;13773;48.868;10.730;2023-06-14T01:55:24;11.10;99.90
25983;DHT22;13773;48.868;10.730;2023-06-14T01:57:53;11.10;99.90
25983;DHT22;13773;48.868;10.730;2023-06-14T02:00:20;11.10;99.90
25983;DHT22;13773;48.868;10.730;2023-06-14T02:02:47;11.10;99.90
25983;DHT22;13773;48.868;10.730;2023-06-14T02:05:13;11.00;99.90
25983;DHT22;13773;48.868;10.730;2023-06-14T02:07:39;11.00;99.90
25983;DHT22;13773;48.868;10.730;2023-06-14T02:10:05;11.00;99.90
25983;DHT22;13773;48.868;10.730;2023-06-14T02:12:31;11.30;99.90
25983;DHT22;13773;48.868;10.730;2023-06-14T02:14:56;11.20;99.90
25983;DHT22;13773;48.868;10.730;2023-06-14T02:17:23;11.10;99.90
25983;DHT22;13773;48.868;10.730;2023-06-14T02:19:49;11.00;99.90
25983;DHT22;13773;48.868;10.730;2023-06-14T02:22:16;11.20;99.90
25983;DHT22;13773;48.868;10.730;2023-06-14T02:24:42;11.10;99.90
25983;DHT22;13773;48.868;10.730;2023-06-14T02:27:08;11.00;99.90
25983;DHT22;13773;48.868;10.730;2023-06-14T02:29:36;11.00;99.90
25983;DHT22;13773;48.868;10.730;2023-06-14T02:32:02;11.00;99.90
25983;DHT22;13773;48.868;10.730;2023-06-14T02:34:28;10.90;99.90
25983;DHT22;13773;48.868;10.730;2023-06-14T02:36:53;10.80;99.90
25983;DHT22;13773;48.868;10.730;2023-06-14T02:39:20;10.70;99.90
25983;DHT22;13773;48.868;10.730;2023-06-14T02:41:49;10.60;99.90
25983;DHT22;13773;48.868;10.730;2023-06-14T02:44:17;10.50;99.90
25983;DHT22;13773;48.868;10.730;2023-06-14T02:46:43;10.50;99.90
25983;DHT22;13773;48.868;10.730;2023-06-14T02:49:10;10.50;99.90
25983;DHT22;13773;48.868;10.730;2023-06-14T02:51:35;10.50;99.90
25983;DHT22;13773;48.868;10.730;2023-06-14T02:54:01;10.40;99.90
25983;DHT22;13773;48.868;10.730;2023-06-14T02:56:27;10.30;99.90
25983;DHT22;13773;48.868;10.730;2023-06-14T02:58:53;10.20;99.90
25983;DHT22;13773;48.868;10.730;2023-06-14T03:01:19;10.10;99.90
25983;DHT22;13773;48.868;10.730;2023-06-14T03:03:46;10.10;99.90
25983;DHT22;13773;48.868;10.730;2023-06-14T03:06:12;10.20;99.90
25983;DHT22;13773;48.868;10.730;2023-06-14T03:08:39;10.20;99.90
25983;DHT22;13773;48.868;10.730;2023-06-14T03:11:07;10.10;99.90
25983;DHT22;13773;48.868;10.730;2023-06-14T03:13:35;10.10;99.90
25983;DHT22;13773;48.868;10.730;2023-06-14T03:16:00;10.10;99.90
25983;DHT22;13773;48.868;10.730;2023-06-14T03:18:30;10.00;99.90
25983;DHT22;13773;48.868;10.730;2023-06-14T03:20:56;10.00;99.90
25983;DHT22;13773;48.868;10.730;2023-06-14T03:23:24;10.30;99.90
25983;DHT22;13773;48.868;10.730;2023-06-14T03:25:51;10.30;99.90
25983;DHT22;13773;48.868;10.730;2023-06-14T03:28:17;10.30;99.90
25983;DHT22;13773;48.868;10.730;2023-06-14T03:30:43;10.20;99.90
25983;DHT22;13773;48.868;10.730;2023-06-14T03:33:08;10.20;99.90
25983;DHT22;13773;48.868;10.730;2023-06-14T03:35:34;10.30;99.90
25983;DHT22;13773;48.868;10.730;2023-06-14T03:38:00;10.20;99.90
25983;DHT22;13773;48.868;10.730;2023-06-14T03:40:26;10.20;99.90
25983;DHT22;13773;48.868;10.730;2023-06-14T03:42:54;10.20;99.90
25983;DHT22;13773;48.868;10.730;2023-06-14T03:45:20;10.30;99.90
25983;DHT22;13773;48.868;10.730;2023-06-14T03:47:46;10.30;99.90
25983;DHT22;13773;48.868;10.730;2023-06-14T03:50:12;10.30;99.90
25983;DHT22;13773;48.868;10.730;2023-06-14T03:52:38;10.30;99.90
25983;DHT22;13773;48.868;10.730;2023-06-14T03:55:04;10.40;99.90
25983;DHT22;13773;48.868;10.730;2023-06-14T03:57:30;10.40;99.90
25983;DHT22;13773;48.868;10.730;2023-06-14T03:59:56;10.40;99.90
25983;DHT22;13773;48.868;10.730;2023-06-14T04:02:22;10.50;99.90
25983;DHT22;13773;48.868;10.730;2023-06-14T04:04:48;10.50;99.90
25983;DHT22;13773;48.868;10.730;2023-06-14T04:07:14;10.50;99.90
25983;DHT22;13773;48.868;10.730;2023-06-14T04:09:41;10.50;99.90
25983;DHT22;13773;48.868;10.730;2023-06-14T04:12:07;10.50;99.90
25983;DHT22;13773;48.868;10.730;2023-06-14T04:14:40;10.50;99.90
25983;DHT22;13773;48.868;10.730;2023-06-14T04:17:06;10.60;99.90
25983;DHT22;13773;48.868;10.730;2023-06-14T04:19:32;10.60;99.90
25983;DHT22;13773;48.868;10.730;2023-06-14T04:21:58;10.60;99.90
25983;DHT22;13773;48.868;10.730;2023-06-14T04:24:28;10.60;99.90
25983;DHT22;13773;48.868;10.730;2023-06-14T04:27:01;10.60;99.90
25983;DHT22;13773;48.868;10.730;2023-06-14T04:29:27;10.60;99.90
25983;DHT22;13773;48.868;10.730;2023-06-14T04:31:55;10.70;99.90
25983;DHT22;13773;48.868;10.730;2023-06-14T04:34:28;10.70;99.90
25983;DHT22;13773;48.868;10.730;2023-06-14T04:36:59;10.80;99.90
25983;DHT22;13773;48.868;10.730;2023-06-14T04:39:27;10.90;99.90
25983;DHT22;13773;48.868;10.730;2023-06-14T04:41:54;10.90;99.90
25983;DHT22;13773;48.868;10.730;2023-06-14T04:44:23;10.90;99.90
25983;DHT22;13773;48.868;10.730;2023-06-14T04:46:57;11.00;99.90
25983;DHT22;13773;48.868;10.730;2023-06-14T04:49:24;11.10;99.90
25983;DHT22;13773;48.868;10.730;2023-06-14T04:51:52;11.20;99.90
25983;DHT22;13773;48.868;10.730;2023-06-14T04:54:23;11.20;99.90
25983;DHT22;13773;48.868;10.730;2023-06-14T04:56:51;11.40;99.90
25983;DHT22;13773;48.868;10.730;2023-06-14T04:59:16;11.50;99.90
25983;DHT22;13773;48.868;10.730;2023-06-14T05:01:43;11.60;99.90
25983;DHT22;13773;48.868;10.730;2023-06-14T05:04:18;11.80;99.90
25983;DHT22;13773;48.868;10.730;2023-06-14T05:06:44;12.00;99.90
25983;DHT22;13773;48.868;10.730;2023-06-14T05:09:11;12.30;99.90
25983;DHT22;13773;48.868;10.730;2023-06-14T05:11:37;12.70;99.90
25983;DHT22;13773;48.868;10.730;2023-06-14T05:14:02;13.20;99.90
25983;DHT22;13773;48.868;10.730;2023-06-14T05:16:28;13.10;99.90
25983;DHT22;13773;48.868;10.730;2023-06-14T05:18:54;14.20;99.90
25983;DHT22;13773;48.868;10.730;2023-06-14T05:21:20;15.40;99.90
25983;DHT22;13773;48.868;10.730;2023-06-14T05:23:46;15.90;99.90
25983;DHT22;13773;48.868;10.730;2023-06-14T05:26:12;16.50;99.90
25983;DHT22;13773;48.868;10.730;2023-06-14T05:28:38;16.90;99.90
25983;DHT22;13773;48.868;10.730;2023-06-14T05:31:03;18.40;99.90
25983;DHT22;13773;48.868;10.730;2023-06-14T05:33:29;18.70;99.20
25983;DHT22;13773;48.868;10.730;2023-06-14T05:35:55;19.20;98.50
25983;DHT22;13773;48.868;10.730;2023-06-14T05:38:21;19.60;97.50
25983;DHT22;13773;48.868;10.730;2023-06-14T05:40:47;18.90;98.00
25983;DHT22;13773;48.868;10.730;2023-06-14T05:43:12;18.40;98.60
25983;DHT22;13773;48.868;10.730;2023-06-14T05:45:38;19.50;98.00
25983;DHT22;13773;48.868;10.730;2023-06-14T05:48:04;19.60;97.00
25983;DHT22;13773;48.868;10.730;2023-06-14T05:50:30;19.80;96.50
25983;DHT22;13773;48.868;10.730;2023-06-14T05:52:56;19.20;97.90
25983;DHT22;13773;48.868;10.730;2023-06-14T05:55:21;20.50;96.00
25983;DHT22;13773;48.868;10.730;2023-06-14T05:57:47;21.60;95.10
25983;DHT22;13773;48.868;10.730;2023-06-14T06:00:14;21.90;94.80
25983;DHT22;13773;48.868;10.730;2023-06-14T06:02:47;22.00;93.90
25983;DHT22;13773;48.868;10.730;2023-06-14T06:05:13;22.80;93.40
25983;DHT22;13773;48.868;10.730;2023-06-14T06:07:39;23.10;93.10
25983;DHT22;13773;48.868;10.730;2023-06-14T06:10:09;22.90;92.80
25983;DHT22;13773;48.868;10.730;2023-06-14T06:12:35;23.10;92.60
25983;DHT22;13773;48.868;10.730;2023-06-14T06:15:01;22.60;92.80
25983;DHT22;13773;48.868;10.730;2023-06-14T06:17:27;22.80;93.10
25983;DHT22;13773;48.868;10.730;2023-06-14T06:19:53;23.40;93.30
25983;DHT22;13773;48.868;10.730;2023-06-14T06:22:20;23.60;92.90
25983;DHT22;13773;48.868;10.730;2023-06-14T06:24:46;23.90;92.20
25983;DHT22;13773;48.868;10.730;2023-06-14T06:27:12;23.90;92.40
25983;DHT22;13773;48.868;10.730;2023-06-14T06:29:38;23.90;91.50
25983;DHT22;13773;48.868;10.730;2023-06-14T06:32:04;24.30;91.00
25983;DHT22;13773;48.868;10.730;2023-06-14T06:34:30;24.30;91.00
25983;DHT22;13773;48.868;10.730;2023-06-14T06:36:56;22.60;92.60
25983;DHT22;13773;48.868;10.730;2023-06-14T06:39:21;22.50;91.90
25983;DHT22;13773;48.868;10.730;2023-06-14T06:41:47;21.40;91.30
25983;DHT22;13773;48.868;10.730;2023-06-14T06:44:13;21.00;91.50
25983;DHT22;13773;48.868;10.730;2023-06-14T06:46:38;20.20;92.50
25983;DHT22;13773;48.868;10.730;2023-06-14T06:49:08;20.50;91.90
25983;DHT22;13773;48.868;10.730;2023-06-14T06:51:41;20.40;92.10
25983;DHT22;13773;48.868;10.730;2023-06-14T06:54:07;21.70;91.30
25983;DHT22;13773;48.868;10.730;2023-06-14T06:56:34;21.10;92.00
25983;DHT22;13773;48.868;10.730;2023-06-14T06:58:59;20.90;91.50
25983;DHT22;13773;48.868;10.730;2023-06-14T07:01:25;20.60;92.50
25983;DHT22;13773;48.868;10.730;2023-06-14T07:03:51;22.30;91.40
25983;DHT22;13773;48.868;10.730;2023-06-14T07:06:17;23.30;90.70
25983;DHT22;13773;48.868;10.730;2023-06-14T07:08:44;22.60;90.00
25983;DHT22;13773;48.868;10.730;2023-06-14T07:11:10;22.60;90.50
25983;DHT22;13773;48.868;10.730;2023-06-14T07:13:37;20.80;91.60
25983;DHT22;13773;48.868;10.730;2023-06-14T07:16:04;21.00;91.20
25983;DHT22;13773;48.868;10.730;2023-06-14T07:18:30;21.80;91.10
25983;DHT22;13773;48.868;10.730;2023-06-14T07:20:56;22.50;90.60
25983;DHT22;13773;48.868;10.730;2023-06-14T07:23:23;21.30;90.80
25983;DHT22;13773;48.868;10.730;2023-06-14T07:25:49;20.40;92.10
25983;DHT22;13773;48.868;10.730;2023-06-14T07:28:16;20.50;92.10
25983;DHT22;13773;48.868;10.730;2023-06-14T07:30:41;20.10;91.80
25983;DHT22;13773;48.868;10.730;2023-06-14T07:33:07;20.00;92.10
25983;DHT22;13773;48.868;10.730;2023-06-14T07:35:34;19.80;92.70
25983;DHT22;13773;48.868;10.730;2023-06-14T07:37:59;19.30;92.60
25983;DHT22;13773;48.868;10.730;2023-06-14T07:40:25;19.60;92.60
25983;DHT22;13773;48.868;10.730;2023-06-14T07:42:51;19.50;92.90
25983;DHT22;13773;48.868;10.730;2023-06-14T07:45:19;19.80;93.10
25983;DHT22;13773;48.868;10.730;2023-06-14T07:47:45;19.50;92.60
25983;DHT22;13773;48.868;10.730;2023-06-14T07:50:11;20.10;92.60
25983;DHT22;13773;48.868;10.730;2023-06-14T07:52:37;19.60;93.00
25983;DHT22;13773;48.868;10.730;2023-06-14T07:55:03;19.50;92.00
25983;DHT22;13773;48.868;10.730;2023-06-14T07:57:29;19.10;93.90
25983;DHT22;13773;48.868;10.730;2023-06-14T07:59:54;19.50;92.50
25983;DHT22;13773;48.868;10.730;2023-06-14T08:02:20;19.80;92.80
25983;DHT22;13773;48.868;10.730;2023-06-14T08:04:46;19.90;92.60
25983;DHT22;13773;48.868;10.730;2023-06-14T08:07:14;19.60;92.00
25983;DHT22;13773;48.868;10.730;2023-06-14T08:09:40;19.80;92.00
25983;DHT22;13773;48.868;10.730;2023-06-14T08:12:06;19.40;91.70
25983;DHT22;13773;48.868;10.730;2023-06-14T08:14:35;19.60;92.40
25983;DHT22;13773;48.868;10.730;2023-06-14T08:17:01;19.90;91.70
25983;DHT22;13773;48.868;10.730;2023-06-14T08:19:27;20.40;92.70
25983;DHT22;13773;48.868;10.730;2023-06-14T08:21:52;20.70;91.10
25983;DHT22;13773;48.868;10.730;2023-06-14T08:24:23;20.40;92.00
25983;DHT22;13773;48.868;10.730;2023-06-14T08:26:50;20.50;91.20
25983;DHT22;13773;48.868;10.730;2023-06-14T08:29:16;20.60;90.80
25983;DHT22;13773;48.868;10.730;2023-06-14T08:31:41;20.30;90.60
25983;DHT22;13773;48.868;10.730;2023-06-14T08:34:07;19.90;90.90
25983;DHT22;13773;48.868;10.730;2023-06-14T08:36:34;20.50;91.20
25983;DHT22;13773;48.868;10.730;2023-06-14T08:39:00;21.10;90.80
25983;DHT22;13773;48.868;10.730;2023-06-14T08:41:26;20.90;90.50
25983;DHT22;13773;48.868;10.730;2023-06-14T08:43:55;20.20;91.80
25983;DHT22;13773;48.868;10.730;2023-06-14T08:46:21;20.80;90.70
25983;DHT22;13773;48.868;10.730;2023-06-14T08:48:49;21.20;90.80
25983;DHT22;13773;48.868;10.730;2023-06-14T08:51:18;20.60;90.80
25983;DHT22;13773;48.868;10.730;2023-06-14T08:53:45;21.10;90.40
25983;DHT22;13773;48.868;10.730;2023-06-14T08:56:12;21.30;90.70
25983;DHT22;13773;48.868;10.730;2023-06-14T08:58:45;22.10;90.80
25983;DHT22;13773;48.868;10.730;2023-06-14T09:01:13;22.30;89.60
25983;DHT22;13773;48.868;10.730;2023-06-14T09:03:42;22.00;89.20
25983;DHT22;13773;48.868;10.730;2023-06-14T09:06:08;21.80;89.50
25983;DHT22;13773;48.868;10.730;2023-06-14T09:08:44;21.10;90.10
25983;DHT22;13773;48.868;10.730;2023-06-14T09:11:11;20.70;90.40
25983;DHT22;13773;48.868;10.730;2023-06-14T09:13:38;21.00;89.60
25983;DHT22;13773;48.868;10.730;2023-06-14T09:16:05;20.50;90.10
25983;DHT22;13773;48.868;10.730;2023-06-14T09:18:49;20.60;90.20
25983;DHT22;13773;48.868;10.730;2023-06-14T09:21:16;20.70;90.50
25983;DHT22;13773;48.868;10.730;2023-06-14T09:23:44;20.50;90.90
25983;DHT22;13773;48.868;10.730;2023-06-14T09:26:20;20.10;89.80
25983;DHT22;13773;48.868;10.730;2023-06-14T09:28:47;20.80;91.80
25983;DHT22;13773;48.868;10.730;2023-06-14T09:31:16;21.50;90.90
25983;DHT22;13773;48.868;10.730;2023-06-14T09:33:46;21.90;87.30
25983;DHT22;13773;48.868;10.730;2023-06-14T09:36:17;22.80;88.50
25983;DHT22;13773;48.868;10.730;2023-06-14T09:39:01;23.70;86.10
25983;DHT22;13773;48.868;10.730;2023-06-14T09:41:34;23.50;83.90
25983;DHT22;13773;48.868;10.730;2023-06-14T09:44:02;22.40;86.30
25983;DHT22;13773;48.868;10.730;2023-06-14T09:46:29;22.30;88.70
25983;DHT22;13773;48.868;10.730;2023-06-14T09:48:58;22.20;86.10
25983;DHT22;13773;48.868;10.730;2023-06-14T09:51:24;22.00;87.40
25983;DHT22;13773;48.868;10.730;2023-06-14T09:53:50;23.00;85.70
25983;DHT22;13773;48.868;10.730;2023-06-14T09:56:28;23.10;87.60
25983;DHT22;13773;48.868;10.730;2023-06-14T09:58:58;22.40;88.30
25983;DHT22;13773;48.868;10.730;2023-06-14T10:01:25;22.40;85.00
25983;DHT22;13773;48.868;10.730;2023-06-14T10:03:57;21.50;84.70
25983;DHT22;13773;48.868;10.730;2023-06-14T10:06:25;21.50;86.10
25983;DHT22;13773;48.868;10.730;2023-06-14T10:08:57;22.10;88.70
25983;DHT22;13773;48.868;10.730;2023-06-14T10:11:25;22.70;87.20
25983;DHT22;13773;48.868;10.730;2023-06-14T10:13:52;22.40;84.10
25983;DHT22;13773;48.868;10.730;2023-06-14T10:16:31;21.70;84.40
25983;DHT22;13773;48.868;10.730;2023-06-14T10:19:10;21.50;86.70
25983;DHT22;13773;48.868;10.730;2023-06-14T10:24:33;21.90;88.00
25983;DHT22;13773;48.868;10.730;2023-06-14T10:26:59;22.10;85.00
25983;DHT22;13773;48.868;10.730;2023-06-14T10:29:27;21.60;85.00
25983;DHT22;13773;48.868;10.730;2023-06-14T10:31:58;21.70;86.50
25983;DHT22;13773;48.868;10.730;2023-06-14T10:34:25;21.40;85.60
25983;DHT22;13773;48.868;10.730;2023-06-14T10:37:02;21.40;84.70
25983;DHT22;13773;48.868;10.730;2023-06-14T10:39:29;21.80;84.80
25983;DHT22;13773;48.868;10.730;2023-06-14T10:41:56;21.90;86.90
25983;DHT22;13773;48.868;10.730;2023-06-14T10:46:49;22.30;84.50
25983;DHT22;13773;48.868;10.730;2023-06-14T10:52:14;21.50;86.80
25983;DHT22;13773;48.868;10.730;2023-06-14T10:55:00;24.80;89.70
25983;DHT22;13773;48.868;10.730;2023-06-14T10:57:27;22.10;83.20
25983;DHT22;13773;48.868;10.730;2023-06-14T10:59:53;21.50;86.40
25983;DHT22;13773;48.868;10.730;2023-06-14T11:04:59;21.80;86.50
25983;DHT22;13773;48.868;10.730;2023-06-14T11:07:52;22.10;85.20
25983;DHT22;13773;48.868;10.730;2023-06-14T11:10:59;21.90;86.80
25983;DHT22;13773;48.868;10.730;2023-06-14T11:13:26;21.70;87.30
25983;DHT22;13773;48.868;10.730;2023-06-14T11:15:52;21.70;86.10
25983;DHT22;13773;48.868;10.730;2023-06-14T11:18:21;21.40;85.10
25983;DHT22;13773;48.868;10.730;2023-06-14T11:20:49;22.00;88.40
25983;DHT22;13773;48.868;10.730;2023-06-14T11:23:15;22.50;88.40
25983;DHT22;13773;48.868;10.730;2023-06-14T11:25:41;23.00;87.40
25983;DHT22;13773;48.868;10.730;2023-06-14T11:28:07;23.00;85.70
25983;DHT22;13773;48.868;10.730;2023-06-14T11:30:33;23.10;83.70
25983;DHT22;13773;48.868;10.730;2023-06-14T11:32:58;24.10;84.70
25983;DHT22;13773;48.868;10.730;2023-06-14T11:35:25;23.90;81.00
25983;DHT22;13773;48.868;10.730;2023-06-14T11:37:55;24.70;83.50
25983;DHT22;13773;48.868;10.730;2023-06-14T11:40:26;25.70;81.00
25983;DHT22;13773;48.868;10.730;2023-06-14T11:42:59;25.20;83.50
25983;DHT22;13773;48.868;10.730;2023-06-14T11:45:26;25.70;79.90
25983;DHT22;13773;48.868;10.730;2023-06-14T11:48:03;25.60;78.30
25983;DHT22;13773;48.868;10.730;2023-06-14T11:50:29;23.90;78.20
25983;DHT22;13773;48.868;10.730;2023-06-14T11:52:59;23.40;81.20
25983;DHT22;13773;48.868;10.730;2023-06-14T11:55:29;23.70;79.90
25983;DHT22;13773;48.868;10.730;2023-06-14T11:57:55;23.30;81.80
25983;DHT22;13773;48.868;10.730;2023-06-14T12:00:25;23.00;82.20
25983;DHT22;13773;48.868;10.730;2023-06-14T12:02:54;22.30;83.20
25983;DHT22;13773;48.868;10.730;2023-06-14T12:05:24;22.50;83.80
25983;DHT22;13773;48.868;10.730;2023-06-14T12:08:02;22.30;82.70
25983;DHT22;13773;48.868;10.730;2023-06-14T12:10:29;22.00;83.10
25983;DHT22;13773;48.868;10.730;2023-06-14T12:12:58;22.30;84.80
25983;DHT22;13773;48.868;10.730;2023-06-14T12:15:24;21.30;85.90
25983;DHT22;13773;48.868;10.730;2023-06-14T12:17:54;21.80;85.00
25983;DHT22;13773;48.868;10.730;2023-06-14T12:20:20;21.70;85.60
25983;DHT22;13773;48.868;10.730;2023-06-14T12:22:57;22.00;83.40
25983;DHT22;13773;48.868;10.730;2023-06-14T12:25:27;22.20;82.90
25983;DHT22;13773;48.868;10.730;2023-06-14T12:27:55;21.80;84.70
25983;DHT22;13773;48.868;10.730;2023-06-14T12:30:21;21.70;86.20
25983;DHT22;13773;48.868;10.730;2023-06-14T12:32:47;21.70;85.40
25983;DHT22;13773;48.868;10.730;2023-06-14T12:35:12;22.10;85.10
25983;DHT22;13773;48.868;10.730;2023-06-14T12:37:38;22.70;85.60
25983;DHT22;13773;48.868;10.730;2023-06-14T12:40:04;22.40;85.20
25983;DHT22;13773;48.868;10.730;2023-06-14T12:42:33;22.30;87.90
25983;DHT22;13773;48.868;10.730;2023-06-14T12:45:02;22.20;86.00
25983;DHT22;13773;48.868;10.730;2023-06-14T12:47:28;22.20;86.80
25983;DHT22;13773;48.868;10.730;2023-06-14T12:49:53;22.50;85.60
25983;DHT22;13773;48.868;10.730;2023-06-14T12:52:19;22.00;85.00
25983;DHT22;13773;48.868;10.730;2023-06-14T12:54:45;22.00;85.60
25983;DHT22;13773;48.868;10.730;2023-06-14T12:57:10;22.60;87.60
25983;DHT22;13773;48.868;10.730;2023-06-14T12:59:36;23.10;86.50
25983;DHT22;13773;48.868;10.730;2023-06-14T13:02:16;23.50;85.50
25983;DHT22;13773;48.868;10.730;2023-06-14T13:04:42;23.70;85.40
25983;DHT22;13773;48.868;10.730;2023-06-14T13:07:08;24.30;83.80
25983;DHT22;13773;48.868;10.730;2023-06-14T13:09:36;24.60;82.80
25983;DHT22;13773;48.868;10.730;2023-06-14T13:12:02;23.90;81.30
25983;DHT22;13773;48.868;10.730;2023-06-14T13:14:28;24.30;79.10
25983;DHT22;13773;48.868;10.730;2023-06-14T13:16:53;24.40;78.80
25983;DHT22;13773;48.868;10.730;2023-06-14T13:19:20;23.50;77.30
25983;DHT22;13773;48.868;10.730;2023-06-14T13:21:46;23.40;77.70
25983;DHT22;13773;48.868;10.730;2023-06-14T13:24:11;23.20;77.80
25983;DHT22;13773;48.868;10.730;2023-06-14T13:26:37;23.80;77.90
25983;DHT22;13773;48.868;10.730;2023-06-14T13:29:03;24.40;76.90
25983;DHT22;13773;48.868;10.730;2023-06-14T13:31:29;24.50;77.40
25983;DHT22;13773;48.868;10.730;2023-06-14T13:33:55;24.80;76.30
25983;DHT22;13773;48.868;10.730;2023-06-14T13:36:21;23.90;78.90
25983;DHT22;13773;48.868;10.730;2023-06-14T13:38:46;23.30;79.80
25983;DHT22;13773;48.868;10.730;2023-06-14T13:41:12;23.40;79.30
25983;DHT22;13773;48.868;10.730;2023-06-14T13:43:38;25.10;81.50
25983;DHT22;13773;48.868;10.730;2023-06-14T13:46:03;23.70;80.10
25983;DHT22;13773;48.868;10.730;2023-06-14T13:48:29;23.80;79.70
25983;DHT22;13773;48.868;10.730;2023-06-14T13:50:55;23.40;79.90
25983;DHT22;13773;48.868;10.730;2023-06-14T13:53:22;23.70;81.90
25983;DHT22;13773;48.868;10.730;2023-06-14T13:55:48;23.60;81.90
25983;DHT22;13773;48.868;10.730;2023-06-14T13:58:14;23.50;77.70
25983;DHT22;13773;48.868;10.730;2023-06-14T14:00:40;23.30;78.70
25983;DHT22;13773;48.868;10.730;2023-06-14T14:03:06;23.10;79.30
25983;DHT22;13773;48.868;10.730;2023-06-14T14:05:32;22.80;79.10
25983;DHT22;13773;48.868;10.730;2023-06-14T14:07:58;22.50;80.70
25983;DHT22;13773;48.868;10.730;2023-06-14T14:10:26;22.70;81.20
25983;DHT22;13773;48.868;10.730;2023-06-14T14:12:52;22.50;81.20
25983;DHT22;13773;48.868;10.730;2023-06-14T14:15:19;22.50;80.10
25983;DHT22;13773;48.868;10.730;2023-06-14T14:17:44;22.10;81.60
25983;DHT22;13773;48.868;10.730;2023-06-14T14:20:11;21.70;82.20
25983;DHT22;13773;48.868;10.730;2023-06-14T14:22:42;22.30;82.30
25983;DHT22;13773;48.868;10.730;2023-06-14T14:25:08;22.20;82.80
25983;DHT22;13773;48.868;10.730;2023-06-14T14:27:34;22.30;82.60
25983;DHT22;13773;48.868;10.730;2023-06-14T14:30:00;22.50;82.30
25983;DHT22;13773;48.868;10.730;2023-06-14T14:32:25;22.80;82.00
25983;DHT22;13773;48.868;10.730;2023-06-14T14:34:51;22.90;81.90
25983;DHT22;13773;48.868;10.730;2023-06-14T14:37:17;22.60;81.40
25983;DHT22;13773;48.868;10.730;2023-06-14T14:39:44;22.60;82.20
25983;DHT22;13773;48.868;10.730;2023-06-14T14:42:11;22.90;82.20
25983;DHT22;13773;48.868;10.730;2023-06-14T14:44:38;22.90;81.00
25983;DHT22;13773;48.868;10.730;2023-06-14T14:47:05;23.70;80.70
25983;DHT22;13773;48.868;10.730;2023-06-14T14:49:33;23.20;80.50
25983;DHT22;13773;48.868;10.730;2023-06-14T14:51:59;22.90;82.10
25983;DHT22;13773;48.868;10.730;2023-06-14T14:54:25;22.60;80.90
25983;DHT22;13773;48.868;10.730;2023-06-14T14:56:51;22.70;80.50
25983;DHT22;13773;48.868;10.730;2023-06-14T14:59:17;22.80;80.50
25983;DHT22;13773;48.868;10.730;2023-06-14T15:01:44;22.80;81.30
25983;DHT22;13773;48.868;10.730;2023-06-14T15:04:10;22.80;82.50
25983;DHT22;13773;48.868;10.730;2023-06-14T15:06:37;23.00;81.40
25983;DHT22;13773;48.868;10.730;2023-06-14T15:09:04;23.20;81.80
25983;DHT22;13773;48.868;10.730;2023-06-14T15:11:30;23.00;81.40
25983;DHT22;13773;48.868;10.730;2023-06-14T15:13:55;22.90;83.10
25983;DHT22;13773;48.868;10.730;2023-06-14T15:16:21;22.50;83.60
25983;DHT22;13773;48.868;10.730;2023-06-14T15:18:47;23.10;85.50
25983;DHT22;13773;48.868;10.730;2023-06-14T15:21:12;22.80;83.90
25983;DHT22;13773;48.868;10.730;2023-06-14T15:23:38;22.30;85.10
25983;DHT22;13773;48.868;10.730;2023-06-14T15:26:04;22.20;84.30
25983;DHT22;13773;48.868;10.730;2023-06-14T15:28:30;21.80;84.60
25983;DHT22;13773;48.868;10.730;2023-06-14T15:30:58;22.30;84.20
25983;DHT22;13773;48.868;10.730;2023-06-14T15:33:24;22.40;85.20